sensor_id;sensor_type;location;lat;lon;timestamp;P1;durP1;ratioP1;P2;durP2;ratioP2
63259;SDS011;49390;51.380;0.098;2022-07-06T00:01:21;3.75;;;2.40;;
63259;SDS011;49390;51.380;0.098;2022-07-06T00:03:50;5.93;;;2.65;;
63259;SDS011;49390;51.380;0.098;2022-07-06T00:06:23;5.55;;;2.25;;
63259;SDS011;49390;51.380;0.098;2022-07-06T00:08:52;5.25;;;2.35;;
63259;SDS011;49390;51.380;0.098;2022-07-06T00:11:20;3.65;;;2.10;;
63259;SDS011;49390;51.380;0.098;2022-07-06T00:13:49;5.68;;;2.22;;
63259;SDS011;49390;51.380;0.098;2022-07-06T00:16:17;4.03;;;2.20;;
63259;SDS011;49390;51.380;0.098;2022-07-06T00:18:47;3.97;;;2.20;;
63259;SDS011;49390;51.380;0.098;2022-07-06T00:21:15;5.00;;;2.40;;
63259;SDS011;49390;51.380;0.098;2022-07-06T00:23:43;4.50;;;2.40;;
63259;SDS011;49390;51.380;0.098;2022-07-06T00:26:12;5.82;;;2.35;;
63259;SDS011;49390;51.380;0.098;2022-07-06T00:28:40;3.17;;;2.20;;
63259;SDS011;49390;51.380;0.098;2022-07-06T00:31:08;4.35;;;2.15;;
63259;SDS011;49390;51.380;0.098;2022-07-06T00:33:37;4.00;;;2.22;;
63259;SDS011;49390;51.380;0.098;2022-07-06T00:36:06;4.40;;;2.38;;
63259;SDS011;49390;51.380;0.098;2022-07-06T00:38:34;5.93;;;2.40;;
63259;SDS011;49390;51.380;0.098;2022-07-06T00:41:03;4.97;;;2.85;;
63259;SDS011;49390;51.380;0.098;2022-07-06T00:43:47;3.22;;;2.00;;
63259;SDS011;49390;51.380;0.098;2022-07-06T00:46:32;4.30;;;2.20;;
63259;SDS011;49390;51.380;0.098;2022-07-06T00:49:00;3.65;;;2.08;;
63259;SDS011;49390;51.380;0.098;2022-07-06T00:51:32;5.50;;;3.00;;
63259;SDS011;49390;51.380;0.098;2022-07-06T00:54:04;3.63;;;2.30;;
63259;SDS011;49390;51.380;0.098;2022-07-06T00:56:32;4.72;;;2.53;;
63259;SDS011;49390;51.380;0.098;2022-07-06T00:59:01;5.43;;;2.28;;
63259;SDS011;49390;51.380;0.098;2022-07-06T01:01:30;4.28;;;2.28;;
63259;SDS011;49390;51.380;0.098;2022-07-06T01:03:58;4.53;;;2.40;;
63259;SDS011;49390;51.380;0.098;2022-07-06T01:06:26;5.32;;;2.38;;
63259;SDS011;49390;51.380;0.098;2022-07-06T01:08:54;4.75;;;2.55;;
63259;SDS011;49390;51.380;0.098;2022-07-06T01:11:22;5.30;;;2.30;;
63259;SDS011;49390;51.380;0.098;2022-07-06T01:13:50;6.28;;;2.60;;
63259;SDS011;49390;51.380;0.098;2022-07-06T01:16:19;5.30;;;2.40;;
63259;SDS011;49390;51.380;0.098;2022-07-06T01:18:47;8.43;;;2.50;;
63259;SDS011;49390;51.380;0.098;2022-07-06T01:21:17;5.07;;;2.50;;
63259;SDS011;49390;51.380;0.098;2022-07-06T01:23:46;6.07;;;2.88;;
63259;SDS011;49390;51.380;0.098;2022-07-06T01:26:16;4.72;;;2.58;;
63259;SDS011;49390;51.380;0.098;2022-07-06T01:28:48;4.00;;;2.20;;
63259;SDS011;49390;51.380;0.098;2022-07-06T01:31:19;4.57;;;2.30;;
63259;SDS011;49390;51.380;0.098;2022-07-06T01:33:54;4.32;;;2.33;;
63259;SDS011;49390;51.380;0.098;2022-07-06T01:36:23;4.63;;;2.53;;
63259;SDS011;49390;51.380;0.098;2022-07-06T01:38:52;5.45;;;2.45;;
63259;SDS011;49390;51.380;0.098;2022-07-06T01:41:21;4.72;;;2.55;;
63259;SDS011;49390;51.380;0.098;2022-07-06T01:43:49;7.60;;;2.60;;
63259;SDS011;49390;51.380;0.098;2022-07-06T01:46:18;4.47;;;2.33;;
63259;SDS011;49390;51.380;0.098;2022-07-06T01:48:47;5.57;;;2.53;;
63259;SDS011;49390;51.380;0.098;2022-07-06T01:51:15;6.72;;;2.50;;
63259;SDS011;49390;51.380;0.098;2022-07-06T01:53:45;3.83;;;2.25;;
63259;SDS011;49390;51.380;0.098;2022-07-06T01:56:16;5.77;;;2.50;;
63259;SDS011;49390;51.380;0.098;2022-07-06T01:58:48;5.13;;;2.58;;
63259;SDS011;49390;51.380;0.098;2022-07-06T02:01:18;5.05;;;2.58;;
63259;SDS011;49390;51.380;0.098;2022-07-06T02:03:48;4.68;;;2.33;;
63259;SDS011;49390;51.380;0.098;2022-07-06T02:06:16;5.57;;;2.60;;
63259;SDS011;49390;51.380;0.098;2022-07-06T02:08:50;6.75;;;2.40;;
63259;SDS011;49390;51.380;0.098;2022-07-06T02:11:19;7.30;;;2.80;;
63259;SDS011;49390;51.380;0.098;2022-07-06T02:13:47;4.70;;;2.50;;
63259;SDS011;49390;51.380;0.098;2022-07-06T02:16:16;4.18;;;2.40;;
63259;SDS011;49390;51.380;0.098;2022-07-06T02:18:44;5.88;;;2.42;;
63259;SDS011;49390;51.380;0.098;2022-07-06T02:21:12;6.40;;;2.60;;
63259;SDS011;49390;51.380;0.098;2022-07-06T02:23:40;4.22;;;2.30;;
63259;SDS011;49390;51.380;0.098;2022-07-06T02:26:08;4.55;;;2.20;;
63259;SDS011;49390;51.380;0.098;2022-07-06T02:28:37;6.00;;;2.50;;
63259;SDS011;49390;51.380;0.098;2022-07-06T02:31:06;7.63;;;2.72;;
63259;SDS011;49390;51.380;0.098;2022-07-06T02:33:34;6.20;;;2.35;;
63259;SDS011;49390;51.380;0.098;2022-07-06T02:36:02;6.75;;;2.70;;
63259;SDS011;49390;51.380;0.098;2022-07-06T02:38:31;5.40;;;2.70;;
63259;SDS011;49390;51.380;0.098;2022-07-06T02:41:01;4.97;;;2.60;;
63259;SDS011;49390;51.380;0.098;2022-07-06T02:43:29;6.97;;;2.70;;
63259;SDS011;49390;51.380;0.098;2022-07-06T02:45:58;6.07;;;2.80;;
63259;SDS011;49390;51.380;0.098;2022-07-06T02:48:28;5.43;;;2.60;;
63259;SDS011;49390;51.380;0.098;2022-07-06T02:50:57;5.82;;;2.60;;
63259;SDS011;49390;51.380;0.098;2022-07-06T02:55:57;5.82;;;2.60;;
63259;SDS011;49390;51.380;0.098;2022-07-06T02:58:27;5.68;;;2.88;;
63259;SDS011;49390;51.380;0.098;2022-07-06T03:00:56;5.13;;;2.70;;
63259;SDS011;49390;51.380;0.098;2022-07-06T03:03:24;6.38;;;2.60;;
63259;SDS011;49390;51.380;0.098;2022-07-06T03:05:52;5.57;;;2.55;;
63259;SDS011;49390;51.380;0.098;2022-07-06T03:08:23;5.18;;;2.63;;
63259;SDS011;49390;51.380;0.098;2022-07-06T03:10:52;4.43;;;2.50;;
63259;SDS011;49390;51.380;0.098;2022-07-06T03:13:21;5.45;;;3.17;;
63259;SDS011;49390;51.380;0.098;2022-07-06T03:15:50;8.02;;;2.70;;
63259;SDS011;49390;51.380;0.098;2022-07-06T03:18:18;5.82;;;2.70;;
63259;SDS011;49390;51.380;0.098;2022-07-06T03:20:46;5.07;;;2.78;;
63259;SDS011;49390;51.380;0.098;2022-07-06T03:23:17;6.60;;;2.83;;
63259;SDS011;49390;51.380;0.098;2022-07-06T03:25:45;5.22;;;2.53;;
63259;SDS011;49390;51.380;0.098;2022-07-06T03:28:15;6.00;;;2.50;;
63259;SDS011;49390;51.380;0.098;2022-07-06T03:30:43;6.68;;;2.75;;
63259;SDS011;49390;51.380;0.098;2022-07-06T03:33:12;6.95;;;2.70;;
63259;SDS011;49390;51.380;0.098;2022-07-06T03:35:41;6.32;;;2.50;;
63259;SDS011;49390;51.380;0.098;2022-07-06T03:38:11;5.18;;;2.35;;
63259;SDS011;49390;51.380;0.098;2022-07-06T03:40:41;6.07;;;2.70;;
63259;SDS011;49390;51.380;0.098;2022-07-06T03:43:09;6.85;;;2.55;;
63259;SDS011;49390;51.380;0.098;2022-07-06T03:45:39;4.78;;;2.75;;
63259;SDS011;49390;51.380;0.098;2022-07-06T03:48:07;6.32;;;2.60;;
63259;SDS011;49390;51.380;0.098;2022-07-06T03:50:37;5.70;;;2.80;;
63259;SDS011;49390;51.380;0.098;2022-07-06T03:53:06;5.53;;;2.83;;
63259;SDS011;49390;51.380;0.098;2022-07-06T03:55:34;6.05;;;2.45;;
63259;SDS011;49390;51.380;0.098;2022-07-06T03:58:06;9.77;;;2.97;;
63259;SDS011;49390;51.380;0.098;2022-07-06T04:00:37;6.63;;;2.65;;
63259;SDS011;49390;51.380;0.098;2022-07-06T04:03:10;5.93;;;2.70;;
63259;SDS011;49390;51.380;0.098;2022-07-06T04:05:45;5.25;;;2.67;;
63259;SDS011;49390;51.380;0.098;2022-07-06T04:08:14;5.63;;;3.00;;
63259;SDS011;49390;51.380;0.098;2022-07-06T04:10:50;5.70;;;2.83;;
63259;SDS011;49390;51.380;0.098;2022-07-06T04:13:18;8.43;;;3.42;;
63259;SDS011;49390;51.380;0.098;2022-07-06T04:15:46;7.97;;;2.83;;
63259;SDS011;49390;51.380;0.098;2022-07-06T04:18:15;7.35;;;2.80;;
63259;SDS011;49390;51.380;0.098;2022-07-06T04:20:51;5.10;;;3.60;;
63259;SDS011;49390;51.380;0.098;2022-07-06T04:23:20;9.27;;;3.13;;
63259;SDS011;49390;51.380;0.098;2022-07-06T04:25:50;7.95;;;3.08;;
63259;SDS011;49390;51.380;0.098;2022-07-06T04:28:19;5.38;;;2.92;;
63259;SDS011;49390;51.380;0.098;2022-07-06T04:30:47;5.63;;;2.90;;
63259;SDS011;49390;51.380;0.098;2022-07-06T04:33:18;5.55;;;2.95;;
63259;SDS011;49390;51.380;0.098;2022-07-06T04:35:51;8.45;;;3.10;;
63259;SDS011;49390;51.380;0.098;2022-07-06T04:40:53;9.77;;;3.00;;
63259;SDS011;49390;51.380;0.098;2022-07-06T04:43:22;5.05;;;2.70;;
63259;SDS011;49390;51.380;0.098;2022-07-06T04:45:50;5.78;;;2.50;;
63259;SDS011;49390;51.380;0.098;2022-07-06T04:48:18;8.27;;;3.15;;
63259;SDS011;49390;51.380;0.098;2022-07-06T04:50:46;7.43;;;2.80;;
63259;SDS011;49390;51.380;0.098;2022-07-06T04:53:20;7.05;;;2.90;;
63259;SDS011;49390;51.380;0.098;2022-07-06T04:56:30;8.35;;;3.30;;
63259;SDS011;49390;51.380;0.098;2022-07-06T04:58:59;5.60;;;2.90;;
63259;SDS011;49390;51.380;0.098;2022-07-06T05:01:27;9.68;;;3.35;;
63259;SDS011;49390;51.380;0.098;2022-07-06T05:03:56;7.18;;;3.05;;
63259;SDS011;49390;51.380;0.098;2022-07-06T05:06:25;9.90;;;3.13;;
63259;SDS011;49390;51.380;0.098;2022-07-06T05:08:53;5.15;;;2.60;;
63259;SDS011;49390;51.380;0.098;2022-07-06T05:11:22;7.25;;;2.95;;
63259;SDS011;49390;51.380;0.098;2022-07-06T05:13:52;7.90;;;2.97;;
63259;SDS011;49390;51.380;0.098;2022-07-06T05:16:20;10.13;;;3.22;;
63259;SDS011;49390;51.380;0.098;2022-07-06T05:18:49;8.05;;;2.97;;
63259;SDS011;49390;51.380;0.098;2022-07-06T05:21:17;7.82;;;2.88;;
63259;SDS011;49390;51.380;0.098;2022-07-06T05:23:45;7.75;;;2.60;;
63259;SDS011;49390;51.380;0.098;2022-07-06T05:26:13;8.10;;;2.80;;
63259;SDS011;49390;51.380;0.098;2022-07-06T05:28:43;9.75;;;2.95;;
63259;SDS011;49390;51.380;0.098;2022-07-06T05:31:14;6.50;;;2.88;;
63259;SDS011;49390;51.380;0.098;2022-07-06T05:33:43;6.78;;;2.90;;
63259;SDS011;49390;51.380;0.098;2022-07-06T05:36:12;6.03;;;2.72;;
63259;SDS011;49390;51.380;0.098;2022-07-06T05:38:40;6.32;;;2.85;;
63259;SDS011;49390;51.380;0.098;2022-07-06T05:41:11;8.60;;;3.65;;
63259;SDS011;49390;51.380;0.098;2022-07-06T05:43:39;6.07;;;3.05;;
63259;SDS011;49390;51.380;0.098;2022-07-06T05:46:07;5.93;;;3.00;;
63259;SDS011;49390;51.380;0.098;2022-07-06T05:48:36;8.48;;;3.03;;
63259;SDS011;49390;51.380;0.098;2022-07-06T05:51:25;9.68;;;3.40;;
63259;SDS011;49390;51.380;0.098;2022-07-06T05:53:53;7.82;;;3.53;;
63259;SDS011;49390;51.380;0.098;2022-07-06T05:56:22;7.55;;;3.00;;
63259;SDS011;49390;51.380;0.098;2022-07-06T05:58:52;7.35;;;3.30;;
63259;SDS011;49390;51.380;0.098;2022-07-06T06:01:20;8.15;;;3.10;;
63259;SDS011;49390;51.380;0.098;2022-07-06T06:04:00;7.03;;;2.60;;
63259;SDS011;49390;51.380;0.098;2022-07-06T06:06:29;8.93;;;3.20;;
63259;SDS011;49390;51.380;0.098;2022-07-06T06:08:58;7.45;;;3.25;;
63259;SDS011;49390;51.380;0.098;2022-07-06T06:11:27;7.40;;;2.90;;
63259;SDS011;49390;51.380;0.098;2022-07-06T06:13:58;7.88;;;3.13;;
63259;SDS011;49390;51.380;0.098;2022-07-06T06:16:28;8.50;;;3.10;;
63259;SDS011;49390;51.380;0.098;2022-07-06T06:18:56;7.22;;;2.90;;
63259;SDS011;49390;51.380;0.098;2022-07-06T06:21:24;5.57;;;2.95;;
63259;SDS011;49390;51.380;0.098;2022-07-06T06:23:52;7.50;;;3.05;;
63259;SDS011;49390;51.380;0.098;2022-07-06T06:26:23;6.45;;;3.22;;
63259;SDS011;49390;51.380;0.098;2022-07-06T06:28:51;6.68;;;2.88;;
63259;SDS011;49390;51.380;0.098;2022-07-06T06:31:19;6.10;;;2.80;;
63259;SDS011;49390;51.380;0.098;2022-07-06T06:33:47;9.43;;;3.10;;
63259;SDS011;49390;51.380;0.098;2022-07-06T06:36:15;7.82;;;3.10;;
63259;SDS011;49390;51.380;0.098;2022-07-06T06:38:47;7.25;;;3.00;;
63259;SDS011;49390;51.380;0.098;2022-07-06T06:41:22;6.22;;;2.88;;
63259;SDS011;49390;51.380;0.098;2022-07-06T06:43:50;5.32;;;3.08;;
63259;SDS011;49390;51.380;0.098;2022-07-06T06:46:24;6.32;;;3.10;;
63259;SDS011;49390;51.380;0.098;2022-07-06T06:48:53;8.27;;;3.13;;
63259;SDS011;49390;51.380;0.098;2022-07-06T06:51:21;6.38;;;2.78;;
63259;SDS011;49390;51.380;0.098;2022-07-06T06:53:50;7.28;;;2.80;;
63259;SDS011;49390;51.380;0.098;2022-07-06T06:56:18;6.10;;;3.00;;
63259;SDS011;49390;51.380;0.098;2022-07-06T06:58:46;4.88;;;2.85;;
63259;SDS011;49390;51.380;0.098;2022-07-06T07:01:35;7.85;;;3.10;;
63259;SDS011;49390;51.380;0.098;2022-07-06T07:04:03;8.63;;;3.30;;
63259;SDS011;49390;51.380;0.098;2022-07-06T07:06:33;8.23;;;3.40;;
63259;SDS011;49390;51.380;0.098;2022-07-06T07:09:02;9.25;;;2.92;;
63259;SDS011;49390;51.380;0.098;2022-07-06T07:11:29;6.30;;;2.80;;
63259;SDS011;49390;51.380;0.098;2022-07-06T07:13:58;6.47;;;3.70;;
63259;SDS011;49390;51.380;0.098;2022-07-06T07:16:28;9.10;;;2.60;;
63259;SDS011;49390;51.380;0.098;2022-07-06T07:18:56;6.82;;;2.95;;
63259;SDS011;49390;51.380;0.098;2022-07-06T07:21:24;5.00;;;2.60;;
63259;SDS011;49390;51.380;0.098;2022-07-06T07:23:53;6.40;;;2.80;;
63259;SDS011;49390;51.380;0.098;2022-07-06T07:26:21;6.28;;;2.83;;
63259;SDS011;49390;51.380;0.098;2022-07-06T07:28:49;6.45;;;2.60;;
63259;SDS011;49390;51.380;0.098;2022-07-06T07:31:17;5.03;;;2.83;;
63259;SDS011;49390;51.380;0.098;2022-07-06T07:33:45;5.45;;;2.80;;
63259;SDS011;49390;51.380;0.098;2022-07-06T07:36:14;5.88;;;2.90;;
63259;SDS011;49390;51.380;0.098;2022-07-06T07:38:45;5.25;;;2.83;;
63259;SDS011;49390;51.380;0.098;2022-07-06T07:41:14;5.25;;;2.72;;
63259;SDS011;49390;51.380;0.098;2022-07-06T07:43:43;6.32;;;2.70;;
63259;SDS011;49390;51.380;0.098;2022-07-06T07:46:11;5.32;;;2.63;;
63259;SDS011;49390;51.380;0.098;2022-07-06T07:48:39;4.70;;;2.65;;
63259;SDS011;49390;51.380;0.098;2022-07-06T07:51:08;5.80;;;2.88;;
63259;SDS011;49390;51.380;0.098;2022-07-06T07:53:36;7.03;;;2.83;;
63259;SDS011;49390;51.380;0.098;2022-07-06T07:56:04;7.20;;;2.83;;
63259;SDS011;49390;51.380;0.098;2022-07-06T07:58:33;4.55;;;2.58;;
63259;SDS011;49390;51.380;0.098;2022-07-06T08:01:01;8.23;;;2.88;;
63259;SDS011;49390;51.380;0.098;2022-07-06T08:03:30;4.72;;;2.63;;
63259;SDS011;49390;51.380;0.098;2022-07-06T08:05:58;4.13;;;2.60;;
63259;SDS011;49390;51.380;0.098;2022-07-06T08:08:27;6.68;;;2.83;;
63259;SDS011;49390;51.380;0.098;2022-07-06T08:10:56;5.50;;;2.80;;
63259;SDS011;49390;51.380;0.098;2022-07-06T08:13:44;5.30;;;2.65;;
63259;SDS011;49390;51.380;0.098;2022-07-06T08:16:13;8.60;;;4.03;;
63259;SDS011;49390;51.380;0.098;2022-07-06T08:18:43;4.90;;;2.70;;
63259;SDS011;49390;51.380;0.098;2022-07-06T08:21:13;5.00;;;2.42;;
63259;SDS011;49390;51.380;0.098;2022-07-06T08:23:54;5.00;;;2.50;;
63259;SDS011;49390;51.380;0.098;2022-07-06T08:26:23;5.82;;;2.63;;
63259;SDS011;49390;51.380;0.098;2022-07-06T08:28:51;7.25;;;2.58;;
63259;SDS011;49390;51.380;0.098;2022-07-06T08:31:20;3.80;;;2.40;;
63259;SDS011;49390;51.380;0.098;2022-07-06T08:34:08;5.68;;;2.50;;
63259;SDS011;49390;51.380;0.098;2022-07-06T08:36:40;6.05;;;2.78;;
63259;SDS011;49390;51.380;0.098;2022-07-06T08:39:08;7.55;;;2.72;;
63259;SDS011;49390;51.380;0.098;2022-07-06T08:41:36;7.20;;;2.60;;
63259;SDS011;49390;51.380;0.098;2022-07-06T08:46:39;4.07;;;2.63;;
63259;SDS011;49390;51.380;0.098;2022-07-06T08:49:09;10.15;;;3.20;;
63259;SDS011;49390;51.380;0.098;2022-07-06T08:51:40;4.07;;;2.47;;
63259;SDS011;49390;51.380;0.098;2022-07-06T08:54:09;5.35;;;2.42;;
63259;SDS011;49390;51.380;0.098;2022-07-06T08:56:38;8.43;;;2.40;;
63259;SDS011;49390;51.380;0.098;2022-07-06T08:59:17;6.60;;;2.70;;
63259;SDS011;49390;51.380;0.098;2022-07-06T09:01:45;5.20;;;2.40;;
63259;SDS011;49390;51.380;0.098;2022-07-06T09:06:19;4.07;;;2.45;;
63259;SDS011;49390;51.380;0.098;2022-07-06T09:08:55;7.03;;;2.33;;
63259;SDS011;49390;51.380;0.098;2022-07-06T09:11:24;4.05;;;2.38;;
63259;SDS011;49390;51.380;0.098;2022-07-06T09:13:56;4.55;;;2.30;;
63259;SDS011;49390;51.380;0.098;2022-07-06T09:16:26;4.38;;;2.45;;
63259;SDS011;49390;51.380;0.098;2022-07-06T09:19:07;3.00;;;2.05;;
63259;SDS011;49390;51.380;0.098;2022-07-06T09:21:37;4.45;;;2.92;;
63259;SDS011;49390;51.380;0.098;2022-07-06T09:24:07;3.92;;;2.40;;
63259;SDS011;49390;51.380;0.098;2022-07-06T09:26:37;5.70;;;2.00;;
63259;SDS011;49390;51.380;0.098;2022-07-06T09:29:08;4.78;;;2.10;;
63259;SDS011;49390;51.380;0.098;2022-07-06T09:31:40;4.57;;;1.95;;
63259;SDS011;49390;51.380;0.098;2022-07-06T09:34:09;3.88;;;2.17;;
63259;SDS011;49390;51.380;0.098;2022-07-06T09:36:45;3.38;;;2.08;;
63259;SDS011;49390;51.380;0.098;2022-07-06T09:41:48;5.03;;;2.40;;
63259;SDS011;49390;51.380;0.098;2022-07-06T09:44:21;5.43;;;2.35;;
63259;SDS011;49390;51.380;0.098;2022-07-06T09:46:58;3.22;;;2.10;;
63259;SDS011;49390;51.380;0.098;2022-07-06T09:49:29;5.03;;;2.25;;
63259;SDS011;49390;51.380;0.098;2022-07-06T09:51:58;3.60;;;2.10;;
63259;SDS011;49390;51.380;0.098;2022-07-06T09:54:27;3.42;;;2.03;;
63259;SDS011;49390;51.380;0.098;2022-07-06T09:56:56;4.43;;;2.10;;
63259;SDS011;49390;51.380;0.098;2022-07-06T09:59:34;4.05;;;2.30;;
63259;SDS011;49390;51.380;0.098;2022-07-06T10:02:04;3.50;;;2.33;;
63259;SDS011;49390;51.380;0.098;2022-07-06T10:04:34;4.53;;;2.10;;
63259;SDS011;49390;51.380;0.098;2022-07-06T10:07:02;4.70;;;2.28;;
63259;SDS011;49390;51.380;0.098;2022-07-06T10:09:34;5.10;;;2.50;;
63259;SDS011;49390;51.380;0.098;2022-07-06T10:12:03;4.85;;;2.33;;
63259;SDS011;49390;51.380;0.098;2022-07-06T10:14:34;5.30;;;2.40;;
63259;SDS011;49390;51.380;0.098;2022-07-06T10:17:03;3.58;;;2.30;;
63259;SDS011;49390;51.380;0.098;2022-07-06T10:19:32;4.05;;;1.95;;
63259;SDS011;49390;51.380;0.098;2022-07-06T10:22:01;4.03;;;2.20;;
63259;SDS011;49390;51.380;0.098;2022-07-06T10:24:31;3.40;;;2.20;;
63259;SDS011;49390;51.380;0.098;2022-07-06T10:27:02;3.63;;;2.35;;
63259;SDS011;49390;51.380;0.098;2022-07-06T10:29:30;3.00;;;2.10;;
63259;SDS011;49390;51.380;0.098;2022-07-06T10:31:59;3.60;;;2.00;;
63259;SDS011;49390;51.380;0.098;2022-07-06T10:34:28;2.90;;;2.00;;
63259;SDS011;49390;51.380;0.098;2022-07-06T10:37:02;3.05;;;1.90;;
63259;SDS011;49390;51.380;0.098;2022-07-06T10:39:34;7.00;;;3.03;;
63259;SDS011;49390;51.380;0.098;2022-07-06T10:42:45;4.47;;;2.15;;
63259;SDS011;49390;51.380;0.098;2022-07-06T10:46:05;3.33;;;2.00;;
63259;SDS011;49390;51.380;0.098;2022-07-06T10:50:48;5.65;;;2.05;;
63259;SDS011;49390;51.380;0.098;2022-07-06T10:53:25;4.10;;;2.20;;
63259;SDS011;49390;51.380;0.098;2022-07-06T10:55:55;4.38;;;2.30;;
63259;SDS011;49390;51.380;0.098;2022-07-06T11:01:22;3.20;;;2.10;;
63259;SDS011;49390;51.380;0.098;2022-07-06T11:06:31;4.78;;;2.10;;
63259;SDS011;49390;51.380;0.098;2022-07-06T11:09:05;3.72;;;2.00;;
63259;SDS011;49390;51.380;0.098;2022-07-06T11:11:42;3.72;;;2.13;;
63259;SDS011;49390;51.380;0.098;2022-07-06T11:14:13;3.40;;;1.67;;
63259;SDS011;49390;51.380;0.098;2022-07-06T11:19:19;3.58;;;2.08;;
63259;SDS011;49390;51.380;0.098;2022-07-06T11:21:50;3.35;;;1.92;;
63259;SDS011;49390;51.380;0.098;2022-07-06T11:24:20;3.42;;;1.80;;
63259;SDS011;49390;51.380;0.098;2022-07-06T11:27:00;4.72;;;1.80;;
63259;SDS011;49390;51.380;0.098;2022-07-06T11:29:31;3.47;;;2.00;;
63259;SDS011;49390;51.380;0.098;2022-07-06T11:32:00;3.25;;;2.15;;
63259;SDS011;49390;51.380;0.098;2022-07-06T11:34:32;3.42;;;1.95;;
63259;SDS011;49390;51.380;0.098;2022-07-06T11:37:03;3.80;;;1.85;;
63259;SDS011;49390;51.380;0.098;2022-07-06T11:39:41;3.67;;;2.10;;
63259;SDS011;49390;51.380;0.098;2022-07-06T11:42:11;4.07;;;2.10;;
63259;SDS011;49390;51.380;0.098;2022-07-06T11:44:41;2.23;;;1.87;;
63259;SDS011;49390;51.380;0.098;2022-07-06T11:47:16;1.90;;;1.50;;
63259;SDS011;49390;51.380;0.098;2022-07-06T11:49:51;4.10;;;1.80;;
63259;SDS011;49390;51.380;0.098;2022-07-06T11:52:20;3.60;;;1.90;;
63259;SDS011;49390;51.380;0.098;2022-07-06T11:54:56;2.85;;;1.75;;
63259;SDS011;49390;51.380;0.098;2022-07-06T11:57:25;2.15;;;1.70;;
63259;SDS011;49390;51.380;0.098;2022-07-06T11:59:58;2.83;;;1.50;;
63259;SDS011;49390;51.380;0.098;2022-07-06T12:02:29;2.13;;;1.60;;
63259;SDS011;49390;51.380;0.098;2022-07-06T12:04:57;2.28;;;1.70;;
63259;SDS011;49390;51.380;0.098;2022-07-06T12:07:28;2.70;;;1.50;;
63259;SDS011;49390;51.380;0.098;2022-07-06T12:09:56;2.10;;;1.50;;
63259;SDS011;49390;51.380;0.098;2022-07-06T12:12:24;4.45;;;1.75;;
63259;SDS011;49390;51.380;0.098;2022-07-06T12:14:52;4.38;;;1.70;;
63259;SDS011;49390;51.380;0.098;2022-07-06T12:17:21;3.30;;;1.77;;
63259;SDS011;49390;51.380;0.098;2022-07-06T12:19:52;2.42;;;1.70;;
63259;SDS011;49390;51.380;0.098;2022-07-06T12:22:25;4.28;;;1.70;;
63259;SDS011;49390;51.380;0.098;2022-07-06T12:24:53;2.92;;;1.50;;
63259;SDS011;49390;51.380;0.098;2022-07-06T12:27:22;2.88;;;1.70;;
63259;SDS011;49390;51.380;0.098;2022-07-06T12:29:50;4.32;;;1.80;;
63259;SDS011;49390;51.380;0.098;2022-07-06T12:32:19;3.08;;;1.67;;
63259;SDS011;49390;51.380;0.098;2022-07-06T12:37:31;2.77;;;1.70;;
63259;SDS011;49390;51.380;0.098;2022-07-06T12:40:00;4.75;;;1.73;;
63259;SDS011;49390;51.380;0.098;2022-07-06T12:42:29;2.28;;;1.63;;
63259;SDS011;49390;51.380;0.098;2022-07-06T12:44:57;4.97;;;1.85;;
63259;SDS011;49390;51.380;0.098;2022-07-06T12:47:25;1.98;;;1.60;;
63259;SDS011;49390;51.380;0.098;2022-07-06T12:50:06;2.85;;;1.80;;
63259;SDS011;49390;51.380;0.098;2022-07-06T12:52:37;4.20;;;1.90;;
63259;SDS011;49390;51.380;0.098;2022-07-06T12:55:06;1.85;;;1.70;;
63259;SDS011;49390;51.380;0.098;2022-07-06T12:57:44;2.20;;;1.50;;
63259;SDS011;49390;51.380;0.098;2022-07-06T13:00:14;2.63;;;1.75;;
63259;SDS011;49390;51.380;0.098;2022-07-06T13:02:44;1.87;;;1.67;;
63259;SDS011;49390;51.380;0.098;2022-07-06T13:05:35;4.85;;;1.80;;
63259;SDS011;49390;51.380;0.098;2022-07-06T13:08:06;3.30;;;1.80;;
63259;SDS011;49390;51.380;0.098;2022-07-06T13:10:36;2.43;;;1.70;;
63259;SDS011;49390;51.380;0.098;2022-07-06T13:13:07;2.72;;;1.50;;
63259;SDS011;49390;51.380;0.098;2022-07-06T13:15:36;4.05;;;1.70;;
63259;SDS011;49390;51.380;0.098;2022-07-06T13:18:04;2.85;;;1.60;;
63259;SDS011;49390;51.380;0.098;2022-07-06T13:20:40;2.53;;;1.42;;
63259;SDS011;49390;51.380;0.098;2022-07-06T13:23:12;2.60;;;1.70;;
63259;SDS011;49390;51.380;0.098;2022-07-06T13:25:40;1.67;;;1.50;;
63259;SDS011;49390;51.380;0.098;2022-07-06T13:28:08;4.85;;;1.80;;
63259;SDS011;49390;51.380;0.098;2022-07-06T13:30:37;2.55;;;1.70;;
63259;SDS011;49390;51.380;0.098;2022-07-06T13:33:05;2.30;;;1.52;;
63259;SDS011;49390;51.380;0.098;2022-07-06T13:35:33;3.83;;;1.67;;
63259;SDS011;49390;51.380;0.098;2022-07-06T13:38:11;3.92;;;1.67;;
63259;SDS011;49390;51.380;0.098;2022-07-06T13:44:05;4.45;;;1.70;;
63259;SDS011;49390;51.380;0.098;2022-07-06T13:46:41;2.72;;;1.67;;
63259;SDS011;49390;51.380;0.098;2022-07-06T13:49:10;3.47;;;1.65;;
63259;SDS011;49390;51.380;0.098;2022-07-06T13:51:39;2.22;;;1.60;;
63259;SDS011;49390;51.380;0.098;2022-07-06T13:54:08;5.43;;;2.22;;
63259;SDS011;49390;51.380;0.098;2022-07-06T13:56:37;2.88;;;1.70;;
63259;SDS011;49390;51.380;0.098;2022-07-06T13:59:06;2.97;;;1.73;;
63259;SDS011;49390;51.380;0.098;2022-07-06T14:01:34;2.25;;;1.70;;
63259;SDS011;49390;51.380;0.098;2022-07-06T14:04:05;2.25;;;1.73;;
63259;SDS011;49390;51.380;0.098;2022-07-06T14:06:34;2.67;;;1.70;;
63259;SDS011;49390;51.380;0.098;2022-07-06T14:09:02;3.90;;;1.88;;
63259;SDS011;49390;51.380;0.098;2022-07-06T14:11:30;3.28;;;1.70;;
63259;SDS011;49390;51.380;0.098;2022-07-06T14:13:58;4.43;;;1.70;;
63259;SDS011;49390;51.380;0.098;2022-07-06T14:16:26;3.05;;;1.80;;
63259;SDS011;49390;51.380;0.098;2022-07-06T14:18:55;3.28;;;1.88;;
63259;SDS011;49390;51.380;0.098;2022-07-06T14:21:24;2.97;;;1.90;;
63259;SDS011;49390;51.380;0.098;2022-07-06T14:23:52;3.88;;;2.15;;
63259;SDS011;49390;51.380;0.098;2022-07-06T14:26:22;3.22;;;1.90;;
63259;SDS011;49390;51.380;0.098;2022-07-06T14:28:54;3.83;;;2.03;;
63259;SDS011;49390;51.380;0.098;2022-07-06T14:31:22;2.80;;;1.88;;
63259;SDS011;49390;51.380;0.098;2022-07-06T14:33:50;3.78;;;1.90;;
63259;SDS011;49390;51.380;0.098;2022-07-06T14:36:18;3.97;;;1.90;;
63259;SDS011;49390;51.380;0.098;2022-07-06T14:38:46;2.95;;;1.80;;
63259;SDS011;49390;51.380;0.098;2022-07-06T14:41:14;2.45;;;1.70;;
63259;SDS011;49390;51.380;0.098;2022-07-06T14:43:43;3.28;;;1.83;;
63259;SDS011;49390;51.380;0.098;2022-07-06T14:46:11;3.22;;;1.80;;
63259;SDS011;49390;51.380;0.098;2022-07-06T14:48:40;3.85;;;1.90;;
63259;SDS011;49390;51.380;0.098;2022-07-06T14:51:10;3.03;;;1.80;;
63259;SDS011;49390;51.380;0.098;2022-07-06T14:53:37;11.52;;;2.10;;
63259;SDS011;49390;51.380;0.098;2022-07-06T14:56:06;2.80;;;1.80;;
63259;SDS011;49390;51.380;0.098;2022-07-06T14:58:34;2.92;;;1.88;;
63259;SDS011;49390;51.380;0.098;2022-07-06T15:01:04;2.53;;;1.98;;
63259;SDS011;49390;51.380;0.098;2022-07-06T15:03:36;2.97;;;1.92;;
63259;SDS011;49390;51.380;0.098;2022-07-06T15:06:04;4.97;;;1.80;;
63259;SDS011;49390;51.380;0.098;2022-07-06T15:08:32;2.58;;;1.80;;
63259;SDS011;49390;51.380;0.098;2022-07-06T15:11:01;2.55;;;1.70;;
63259;SDS011;49390;51.380;0.098;2022-07-06T15:13:29;4.25;;;1.75;;
63259;SDS011;49390;51.380;0.098;2022-07-06T15:15:57;5.63;;;2.10;;
63259;SDS011;49390;51.380;0.098;2022-07-06T15:18:26;2.78;;;1.80;;
63259;SDS011;49390;51.380;0.098;2022-07-06T15:20:54;2.75;;;2.00;;
63259;SDS011;49390;51.380;0.098;2022-07-06T15:23:23;2.58;;;1.70;;
63259;SDS011;49390;51.380;0.098;2022-07-06T15:25:53;2.63;;;1.70;;
63259;SDS011;49390;51.380;0.098;2022-07-06T15:28:23;6.90;;;1.80;;
63259;SDS011;49390;51.380;0.098;2022-07-06T15:33:22;3.85;;;1.90;;
63259;SDS011;49390;51.380;0.098;2022-07-06T15:35:51;4.85;;;1.80;;
63259;SDS011;49390;51.380;0.098;2022-07-06T15:38:23;3.17;;;1.90;;